Hauptseite
METAR-TAF:

METAR-TAF

Flughäfen :

Flughafen VC Bird International

Antigua, Antigua und Barbuda

Breite: 17-07N, Länge: 061-47W, Höhe: 8 m

Beobachtung

Neuester Wetterbericht von vor 45 Minuten, um 01:00 UTC
Wind 11 kt aus Ost
Temperatur 27°C
Luftfeuchtigkeit 84%
Luftdruck 1019 hPa
Sichtweite 10 km oder mehr
Aufgelockert bewölkt in der Höhe von 1800 ft
Schauer in der Nähe

METAR: TAPA 170100Z 10011KT 9999 VCSH SCT018 27/24 Q1019 NOSIG

Zeit: 21:45 (01:45 UTC)

Prognose

Neuester Wetterbericht von vor 2 Stunden und 45 Minuten, um 23:00 UTC
Gültige Prognose vom 17 um 00 UTC bis 17 um 24 UTC
Wind 14 kt aus Ost/Südost
Sichtweite 10 km oder mehr
Aufgelockert bewölkt in der Höhe von 2000 ft

TAF: TAPA 162300Z 1700/1724 11014KT 9999 SCT020

Wetterbeobachtungen und Prognosen von mehr als 4000 Flughäfen (METAR und TAF Bericht).

Die verfügbaren Stationen werden durch gelbe und rote Markierungen auf der Karte dargestellt.

Führen Sie die Maus auf sie, um den Namen der Station zu sehen.

Darauf klicken, um die Beobachtung von Wetterbeobachtungen und Prognosen zu sehen.

Um die Karte zu ändern : klicken Sie auf den grünen Tasten mit einem schwarzen Kreuz Zum Vergrößern, auf den grünen Button mit einem Gedankenstrich zu verkleinern, oder auf die grünen Pfeile für benachbarte Karten.


METAR-TAF: